Time;durP1;ratioP1;P1;durP2;ratioP2;P2;SDS_P1;SDS_P2;PMS_P1;PMS_P2;Temp;Humidity;BMP_temperature;BMP_pressure;BME280_temperature;BME280_humidity;BME280_pressure;Samples;Min_cycle;Max_cycle;Signal;HPM_P1;HPM_P2
2022/06/03 00:00:48;;;;;;;0.80;0.70;;;21.00;47.30;20.20;101706.00;;;;5036552;28;20045;-71
2022/06/03 00:03:59;;;;;;;0.57;0.57;;;21.00;47.20;20.20;101702.00;;;;5028352;28;20075;-71
2022/06/03 00:07:07;;;;;;;0.80;0.80;;;21.00;47.20;20.20;101695.00;;;;5052337;28;20060;-71
2022/06/03 00:10:06;;;;;;;1.00;0.77;;;21.00;47.20;20.20;101697.00;;;;5053909;28;20075;-70
2022/06/03 00:13:25;;;;;;;1.05;0.70;;;21.00;47.30;20.20;101696.00;;;;5040931;28;20200;-71
2022/06/03 00:16:24;;;;;;;1.33;0.73;;;21.00;47.20;20.20;101709.00;;;;5063011;28;20084;-71
2022/06/03 00:19:43;;;;;;;1.27;0.77;;;21.00;47.20;20.20;101705.00;;;;5031493;28;20045;-71
2022/06/03 00:22:54;;;;;;;1.15;0.95;;;21.00;47.20;20.20;101707.00;;;;5034986;28;20037;-71
2022/06/03 00:26:02;;;;;;;1.05;0.88;;;21.00;47.10;20.20;101710.00;;;;5061188;28;20090;-71
2022/06/03 00:29:32;;;;;;;1.02;1.00;;;21.00;47.00;20.20;101709.00;;;;5053584;28;20079;-71
2022/06/03 00:32:30;;;;;;;2.65;0.93;;;21.00;47.00;20.20;101704.00;;;;5020792;28;20499;-71
2022/06/03 00:35:47;;;;;;;0.85;0.80;;;21.00;47.00;20.20;101705.00;;;;5056849;28;20064;-71
2022/06/03 00:39:06;;;;;;;1.77;0.75;;;21.00;47.00;20.20;101706.00;;;;5027394;28;20461;-71
2022/06/03 00:42:31;;;;;;;1.45;0.77;;;21.10;47.10;20.20;101698.00;;;;5022824;28;20046;-71
2022/06/03 00:45:59;;;;;;;2.00;0.93;;;21.00;47.10;20.20;101701.00;;;;5057663;28;20445;-71
2022/06/03 00:49:39;;;;;;;1.20;0.80;;;21.00;47.10;20.10;101695.00;;;;5043830;28;20044;-71
2022/06/03 00:52:50;;;;;;;1.63;1.10;;;21.00;47.10;20.10;101688.00;;;;5039887;28;20068;-71
2022/06/03 00:56:23;;;;;;;0.88;0.88;;;21.00;47.10;20.10;101689.00;;;;5024352;28;20263;-71
2022/06/03 00:59:37;;;;;;;1.33;1.00;;;21.00;47.20;20.10;101689.00;;;;5037203;28;20051;-71
2022/06/03 01:02:42;;;;;;;2.72;1.15;;;21.00;47.30;20.10;101683.00;;;;5041722;28;20203;-71
2022/06/03 01:06:05;;;;;;;0.93;0.85;;;21.00;47.20;20.10;101686.00;;;;5044565;28;20668;-71
2022/06/03 01:09:33;;;;;;;0.95;0.95;;;21.00;47.20;20.10;101685.00;;;;5037321;28;20087;-71
2022/06/03 01:12:50;;;;;;;1.00;0.90;;;21.00;47.30;20.10;101685.00;;;;5050144;28;20068;-71
2022/06/03 01:15:51;;;;;;;1.67;0.98;;;21.00;47.30;20.10;101693.00;;;;5052744;28;20044;-71
2022/06/03 01:19:07;;;;;;;0.98;0.95;;;20.90;47.20;20.10;101688.00;;;;5038953;28;20109;-70
2022/06/03 01:22:06;;;;;;;2.15;0.98;;;20.90;47.20;20.10;101684.00;;;;5050673;28;20060;-71
2022/06/03 01:25:50;;;;;;;2.08;1.13;;;20.90;47.20;20.10;101690.00;;;;5052867;28;20048;-71
2022/06/03 01:29:01;;;;;;;1.27;1.17;;;20.90;47.20;20.10;101695.00;;;;5040986;28;20138;-71
2022/06/03 01:32:34;;;;;;;0.80;0.80;;;20.90;47.20;20.10;101690.00;;;;5055485;28;20063;-71
2022/06/03 01:35:53;;;;;;;1.50;1.10;;;20.90;47.20;20.10;101691.00;;;;5036593;28;20044;-71
2022/06/03 01:39:02;;;;;;;1.40;1.00;;;20.90;47.20;20.10;101690.00;;;;5051645;28;20037;-71
2022/06/03 01:42:38;;;;;;;0.80;0.80;;;20.90;47.20;20.10;101679.00;;;;5032963;28;20094;-71
2022/06/03 01:45:42;;;;;;;1.63;0.90;;;20.90;47.20;20.10;101677.00;;;;5034147;28;20048;-71
2022/06/03 01:49:11;;;;;;;0.75;0.70;;;20.90;47.20;20.00;101680.00;;;;5045269;28;20045;-71
2022/06/03 01:52:25;;;;;;;1.00;0.90;;;20.90;47.20;20.10;101680.00;;;;5020971;28;20562;-71
2022/06/03 01:55:45;;;;;;;1.15;0.95;;;20.90;47.20;20.00;101681.00;;;;5042400;28;20045;-71
2022/06/03 01:58:49;;;;;;;0.93;0.90;;;20.90;47.20;20.10;101674.00;;;;5035370;28;20037;-71
2022/06/03 02:02:12;;;;;;;0.80;0.80;;;20.90;47.20;20.00;101675.00;;;;5042563;28;20051;-71
2022/06/03 02:05:19;;;;;;;3.67;1.10;;;20.90;47.20;20.00;101672.00;;;;5045436;28;20045;-71
2022/06/03 02:08:36;;;;;;;1.23;1.05;;;20.90;47.20;20.00;101674.00;;;;5035236;28;20044;-71
2022/06/03 02:12:05;;;;;;;1.55;0.82;;;20.90;47.20;20.00;101672.00;;;;5076004;28;20375;-71
2022/06/03 02:15:02;;;;;;;0.88;0.85;;;20.90;47.20;20.00;101671.00;;;;5056087;28;20037;-71
2022/06/03 02:18:55;;;;;;;1.05;0.95;;;20.90;47.20;20.00;101672.00;;;;5039754;28;20044;-71
2022/06/03 02:22:39;;;;;;;1.20;1.10;;;20.90;47.20;20.00;101670.00;;;;5019517;28;20425;-71
2022/06/03 02:25:51;;;;;;;1.10;0.90;;;20.90;47.20;20.00;101675.00;;;;5051318;28;20052;-71
2022/06/03 02:32:56;;;;;;;1.00;0.77;;;20.90;47.00;20.00;101663.00;;;;5049517;28;20984;-71
2022/06/03 02:35:52;;;;;;;0.90;0.90;;;20.90;47.00;20.00;101665.00;;;;5051418;28;20513;-71
2022/06/03 02:39:11;;;;;;;1.10;1.00;;;20.90;47.10;20.00;101660.00;;;;5063519;28;20405;-71
2022/06/03 02:42:06;;;;;;;1.25;0.90;;;20.90;47.30;20.00;101658.00;;;;5059265;28;20543;-71
2022/06/03 02:45:12;;;;;;;1.90;1.02;;;20.80;47.10;20.00;101662.00;;;;5063052;28;20039;-71
2022/06/03 02:49:01;;;;;;;1.73;0.93;;;20.90;47.10;20.00;101649.00;;;;5068565;28;20063;-70
2022/06/03 02:51:59;;;;;;;1.65;0.90;;;20.80;47.00;20.00;101649.00;;;;5020810;28;21560;-71
2022/06/03 02:55:09;;;;;;;1.00;0.90;;;20.80;47.00;20.00;101637.00;;;;5064210;28;20037;-71
2022/06/03 02:58:13;;;;;;;1.48;0.98;;;20.80;47.10;20.00;101641.00;;;;5075803;28;20101;-71
2022/06/03 03:01:47;;;;;;;1.10;0.98;;;20.90;47.10;20.00;101643.00;;;;5064621;28;20041;-71
2022/06/03 03:05:06;;;;;;;1.00;0.90;;;20.80;47.00;20.00;101628.00;;;;5063715;28;20072;-71
2022/06/03 03:08:17;;;;;;;1.60;0.90;;;20.90;47.00;20.00;101637.00;;;;5055091;28;20109;-71
2022/06/03 03:11:43;;;;;;;1.25;0.85;;;20.80;47.00;20.00;101635.00;;;;5053640;28;20131;-71
2022/06/03 03:15:13;;;;;;;0.88;0.88;;;20.80;46.90;20.00;101639.00;;;;5060675;28;20037;-71
2022/06/03 03:18:38;;;;;;;0.90;0.77;;;20.80;46.90;20.00;101641.00;;;;5052699;28;20491;-71
2022/06/03 03:21:40;;;;;;;1.02;0.80;;;20.80;47.00;20.00;101633.00;;;;5059968;28;20566;-71
2022/06/03 03:24:52;;;;;;;1.13;1.02;;;20.80;47.00;20.00;101635.00;;;;5050793;28;20232;-71
2022/06/03 03:28:04;;;;;;;1.35;1.08;;;20.80;47.00;20.00;101630.00;;;;5049757;28;20036;-71
2022/06/03 03:31:06;;;;;;;1.42;1.33;;;20.80;47.00;20.00;101623.00;;;;5064016;28;20072;-71
2022/06/03 03:34:30;;;;;;;1.33;0.93;;;20.80;46.90;20.00;101617.00;;;;5045781;28;20102;-71
2022/06/03 03:38:05;;;;;;;1.42;1.00;;;20.80;47.00;20.00;101619.00;;;;5046650;28;20083;-71
2022/06/03 03:41:13;;;;;;;1.25;0.70;;;20.80;46.90;19.90;101630.00;;;;5057568;28;20044;-71
2022/06/03 03:44:37;;;;;;;0.90;0.90;;;20.80;47.00;19.90;101624.00;;;;5058965;28;20032;-71
2022/06/03 03:48:11;;;;;;;1.17;0.75;;;20.80;47.00;19.90;101625.00;;;;5057812;28;20048;-71
2022/06/03 03:51:29;;;;;;;3.58;1.05;;;20.80;47.10;19.90;101626.00;;;;5043416;28;20089;-71
2022/06/03 03:54:32;;;;;;;1.75;1.17;;;20.80;47.10;19.90;101617.00;;;;5063501;28;20110;-71
2022/06/03 03:57:54;;;;;;;1.27;1.00;;;20.70;47.10;19.90;101616.00;;;;5046578;28;20045;-71
2022/06/03 04:00:59;;;;;;;0.88;0.88;;;20.70;47.10;19.90;101607.00;;;;5072282;28;20056;-71
2022/06/03 04:04:23;;;;;;;1.38;0.90;;;20.80;47.10;19.90;101613.00;;;;5063180;28;20047;-71
2022/06/03 04:08:05;;;;;;;1.20;1.02;;;20.70;47.00;19.90;101617.00;;;;5068817;28;20052;-71
2022/06/03 04:11:15;;;;;;;0.90;0.90;;;20.70;46.90;19.90;101616.00;;;;5050490;28;20052;-71
2022/06/03 04:14:53;;;;;;;1.15;0.98;;;20.70;47.00;19.90;101623.00;;;;5063965;28;20040;-71
2022/06/03 04:18:13;;;;;;;1.50;1.05;;;20.70;47.70;19.90;101626.00;;;;5043492;28;20076;-71
2022/06/03 04:21:03;;;;;;;;;;;20.80;47.10;19.90;101620.00;;;;5051629;28;20036;-71
2022/06/03 04:24:32;;;;;;;1.30;1.20;;;20.70;47.10;19.90;101623.00;;;;5058552;28;19916;-71
2022/06/03 04:27:43;;;;;;;1.02;0.90;;;20.80;47.00;19.90;101620.00;;;;5058480;28;20051;-71
2022/06/03 04:30:59;;;;;;;1.15;1.02;;;20.80;47.10;19.90;101619.00;;;;5073412;28;20575;-71
2022/06/03 04:34:30;;;;;;;2.67;1.00;;;20.70;47.00;19.90;101620.00;;;;5047045;28;20051;-71
2022/06/03 04:37:38;;;;;;;1.15;1.00;;;20.70;47.10;19.90;101630.00;;;;5056933;28;20132;-71
2022/06/03 04:41:08;;;;;;;0.80;0.80;;;20.70;47.10;19.90;101629.00;;;;5064335;28;20040;-71
2022/06/03 04:44:28;;;;;;;;;;;20.70;47.10;19.90;101628.00;;;;5032760;28;20389;-71
2022/06/03 04:47:29;;;;;;;1.35;1.10;;;20.70;47.10;19.90;101626.00;;;;5073084;28;19939;-71
2022/06/03 04:50:47;;;;;;;1.25;0.93;;;20.80;47.10;19.90;101620.00;;;;5063270;28;20413;-71
2022/06/03 04:54:14;;;;;;;2.50;0.90;;;20.70;47.00;19.90;101618.00;;;;5075083;28;20557;-71
2022/06/03 04:57:39;;;;;;;2.50;0.90;;;20.70;47.10;19.90;101603.00;;;;5060052;28;20033;-71
2022/06/03 05:00:48;;;;;;;1.92;1.10;;;20.70;47.10;19.90;101597.00;;;;5046423;28;20048;-71
2022/06/03 05:03:56;;;;;;;1.50;1.10;;;20.70;47.10;19.90;101600.00;;;;5062857;28;20041;-70
2022/06/03 05:07:42;;;;;;;1.52;1.00;;;20.80;47.10;19.90;101589.00;;;;5062062;28;20072;-71
2022/06/03 05:11:12;;;;;;;1.40;1.00;;;20.80;47.10;19.90;101605.00;;;;5051401;28;20044;-70
2022/06/03 05:14:20;;;;;;;1.35;1.17;;;20.80;47.20;19.90;101590.00;;;;5062385;28;20094;-70
2022/06/03 05:17:38;;;;;;;1.35;1.00;;;20.80;47.20;19.90;101588.00;;;;5033972;28;20041;-71
2022/06/03 05:20:43;;;;;;;2.45;1.10;;;20.80;47.20;20.00;101600.00;;;;5050875;28;20044;-71
2022/06/03 05:24:13;;;;;;;2.35;1.33;;;20.80;47.10;20.00;101600.00;;;;5027804;28;20418;-71
2022/06/03 05:27:17;;;;;;;0.80;0.80;;;20.80;47.10;20.00;101590.00;;;;5037588;28;20445;-71
2022/06/03 05:30:24;;;;;;;2.10;1.10;;;20.80;47.10;20.00;101596.00;;;;5056883;28;20053;-71
2022/06/03 05:34:05;;;;;;;1.50;1.00;;;20.90;47.20;20.00;101598.00;;;;5036638;28;20518;-71
2022/06/03 05:37:21;;;;;;;1.50;1.30;;;20.90;47.10;20.00;101594.00;;;;5042999;28;20047;-71
2022/06/03 05:41:00;;;;;;;1.75;1.10;;;20.90;47.00;20.00;101592.00;;;;5045225;28;20041;-71
2022/06/03 05:44:13;;;;;;;5.30;1.27;;;20.90;47.10;20.00;101600.00;;;;5045364;28;20047;-71
2022/06/03 05:47:23;;;;;;;3.10;1.40;;;20.90;47.10;20.00;101597.00;;;;5022725;28;20037;-71
2022/06/03 05:50:20;;;;;;;1.50;1.30;;;20.90;47.10;20.00;101590.00;;;;5063370;28;20068;-71
2022/06/03 05:53:21;;;;;;;2.92;1.00;;;20.90;47.10;20.00;101588.00;;;;5033667;28;20051;-71
2022/06/03 05:56:51;;;;;;;2.13;1.38;;;21.00;47.10;20.00;101585.00;;;;5050498;28;20127;-71
2022/06/03 06:00:03;;;;;;;3.47;1.23;;;21.00;47.00;20.00;101581.00;;;;5063694;28;20127;-71
2022/06/03 06:03:26;;;;;;;3.25;1.33;;;21.00;47.10;20.00;101576.00;;;;5047800;28;20079;-71
2022/06/03 06:06:43;;;;;;;1.27;1.13;;;21.00;47.10;20.00;101584.00;;;;5050189;28;20052;-71
2022/06/03 06:09:55;;;;;;;1.73;1.10;;;21.00;47.00;20.00;101584.00;;;;5049813;28;20053;-71
2022/06/03 06:13:12;;;;;;;1.35;1.25;;;21.00;47.00;20.10;101595.00;;;;5048748;28;20175;-71
2022/06/03 06:16:07;;;;;;;1.50;1.13;;;21.00;47.00;20.10;101591.00;;;;5046638;28;20057;-71
2022/06/03 06:19:07;;;;;;;1.15;1.05;;;21.00;46.90;20.10;101588.00;;;;5046513;28;20040;-71
2022/06/03 06:22:17;;;;;;;1.90;1.00;;;21.00;47.00;20.10;101584.00;;;;5058419;28;20448;-70
2022/06/03 06:25:13;;;;;;;1.25;1.13;;;21.00;47.00;20.10;101580.00;;;;5040479;28;20053;-71
2022/06/03 06:28:01;;;;;;;1.13;1.08;;;21.00;46.90;20.10;101577.00;;;;5032309;28;20064;-71
2022/06/03 06:31:49;;;;;;;1.20;1.10;;;21.00;46.90;20.10;101581.00;;;;5062351;28;20569;-70
2022/06/03 06:35:25;;;;;;;1.48;1.38;;;21.00;46.90;20.10;101586.00;;;;5045007;28;20103;-70
2022/06/03 06:38:30;;;;;;;1.67;1.13;;;21.10;46.90;20.10;101573.00;;;;5040765;28;20033;-71
2022/06/03 06:41:23;;;;;;;1.20;1.10;;;21.10;46.80;20.10;101578.00;;;;5051551;28;20045;-71
2022/06/03 06:44:22;;;;;;;1.58;1.23;;;21.10;46.80;20.10;101569.00;;;;5058123;28;20037;-70
2022/06/03 06:47:32;;;;;;;1.23;1.13;;;21.10;46.80;20.10;101574.00;;;;5049502;28;20479;-70
2022/06/03 06:50:22;;;;;;;1.33;1.23;;;21.10;46.80;20.10;101572.00;;;;5046235;28;20220;-70
2022/06/03 06:53:20;;;;;;;2.58;1.27;;;21.10;46.80;20.10;101577.00;;;;5040985;28;20119;-71
2022/06/03 06:56:30;;;;;;;2.00;1.25;;;21.10;46.80;20.10;101582.00;;;;5056126;28;20041;-71
2022/06/03 06:59:27;;;;;;;3.78;1.42;;;21.10;46.70;20.10;101582.00;;;;5034671;28;20095;-71
2022/06/03 07:02:49;;;;;;;1.30;1.20;;;21.10;46.70;20.10;101576.00;;;;5054138;28;20041;-71
2022/06/03 07:05:39;;;;;;;2.20;1.15;;;21.10;46.70;20.10;101570.00;;;;5047740;28;20656;-71
2022/06/03 07:08:46;;;;;;;2.40;1.30;;;21.10;46.70;20.10;101580.00;;;;5055164;28;20049;-70
2022/06/03 07:11:43;;;;;;;1.63;1.00;;;21.10;46.70;20.10;101574.00;;;;5054016;28;20037;-71
2022/06/03 07:14:39;;;;;;;1.85;1.42;;;21.10;46.70;20.10;101579.00;;;;5046998;28;20041;-71
2022/06/03 07:21:18;;;;;;;1.50;1.40;;;21.10;46.70;20.10;101585.00;;;;5045701;28;20073;-71
2022/06/03 07:24:15;;;;;;;4.20;2.00;;;21.10;46.60;20.10;101593.00;;;;5046348;28;20480;-71
2022/06/03 07:27:07;;;;;;;1.90;1.23;;;21.10;46.60;20.10;101585.00;;;;5057209;28;20049;-71
2022/06/03 07:30:19;;;;;;;2.70;1.30;;;21.20;46.70;20.10;101582.00;;;;5034949;28;20330;-71
2022/06/03 07:33:35;;;;;;;3.03;1.45;;;21.20;46.60;20.20;101582.00;;;;5042203;28;20491;-71
2022/06/03 07:36:48;;;;;;;1.70;1.33;;;21.20;46.60;20.10;101573.00;;;;5040582;28;20121;-71
2022/06/03 07:40:23;;;;;;;2.22;1.23;;;21.20;46.60;20.10;101579.00;;;;5039225;28;20073;-71
2022/06/03 07:43:48;;;;;;;1.52;1.27;;;21.10;46.50;20.10;101572.00;;;;5044371;28;20381;-71
2022/06/03 07:46:52;;;;;;;1.88;1.33;;;21.20;46.60;20.10;101576.00;;;;5049629;28;20407;-71
2022/06/03 07:49:38;;;;;;;2.72;1.45;;;21.20;46.70;20.20;101561.00;;;;5053172;28;20041;-71
2022/06/03 07:52:46;;;;;;;1.45;1.10;;;21.20;46.60;20.20;101564.00;;;;5040590;28;20427;-71
2022/06/03 07:55:32;;;;;;;2.25;1.05;;;21.10;46.50;20.20;101563.00;;;;5043299;28;20096;-71
2022/06/03 07:58:20;;;;;;;1.30;1.20;;;21.20;46.60;20.20;101570.00;;;;5028001;28;20045;-71
2022/06/03 08:01:20;;;;;;;1.42;1.00;;;21.10;46.50;20.20;101557.00;;;;5043458;28;20053;-71
2022/06/03 08:04:07;;;;;;;1.27;1.05;;;21.20;46.60;20.20;101559.00;;;;5057614;28;20048;-71
2022/06/03 08:13:18;;;;;;;1.60;1.50;;;21.20;46.60;20.20;101559.00;;;;5042156;28;20067;-71
2022/06/03 08:16:25;;;;;;;1.25;1.10;;;21.20;46.60;20.20;101552.00;;;;5039779;28;20055;-71
2022/06/03 08:19:16;;;;;;;1.60;1.27;;;21.20;46.70;20.20;101544.00;;;;5042563;28;20467;-71
2022/06/03 08:22:05;;;;;;;2.40;0.98;;;21.20;46.70;20.20;101538.00;;;;5040807;28;20407;-71
2022/06/03 08:24:57;;;;;;;1.80;1.30;;;21.20;46.70;20.20;101549.00;;;;5053594;28;20040;-71
2022/06/03 08:27:43;;;;;;;1.90;1.20;;;21.20;46.70;20.20;101546.00;;;;5042616;28;20123;-71
2022/06/03 08:30:29;;;;;;;2.50;1.05;;;21.20;46.70;20.20;101546.00;;;;5043165;28;20064;-71
2022/06/03 08:33:18;;;;;;;1.15;1.05;;;21.20;46.70;20.20;101540.00;;;;5053448;28;20483;-71
2022/06/03 08:36:04;;;;;;;2.05;1.30;;;21.20;46.70;20.20;101534.00;;;;5054170;28;20056;-71
2022/06/03 08:39:17;;;;;;;1.48;1.10;;;21.20;46.70;20.20;101547.00;;;;5045417;28;20072;-71
2022/06/03 08:42:38;;;;;;;2.05;1.48;;;21.20;46.70;20.20;101545.00;;;;5028837;28;20044;-71
2022/06/03 08:45:46;;;;;;;2.13;1.45;;;21.20;46.70;20.20;101553.00;;;;5044581;28;20076;-71
2022/06/03 08:48:41;;;;;;;2.40;1.88;;;21.30;46.80;20.20;101543.00;;;;5052077;28;20713;-70
2022/06/03 08:51:43;;;;;;;2.85;1.73;;;21.30;46.90;20.20;101538.00;;;;5055327;28;20044;-71
2022/06/03 08:54:40;;;;;;;1.67;1.58;;;21.30;47.00;20.20;101536.00;;;;5024020;28;20137;-70
2022/06/03 08:57:42;;;;;;;1.65;1.38;;;21.30;47.00;20.20;101529.00;;;;5042271;28;20048;-71
2022/06/03 09:00:49;;;;;;;2.28;1.75;;;21.30;47.00;20.20;101530.00;;;;5037056;28;20140;-71
2022/06/03 09:04:21;;;;;;;1.42;1.33;;;21.30;47.00;20.30;101540.00;;;;5043648;28;20049;-71
2022/06/03 09:07:28;;;;;;;2.00;1.80;;;21.30;47.00;20.30;101531.00;;;;5024386;28;20037;-71
2022/06/03 09:10:24;;;;;;;2.40;1.52;;;21.20;46.90;20.30;101536.00;;;;5041729;28;20059;-71
2022/06/03 09:13:33;;;;;;;2.67;2.15;;;21.30;47.00;20.30;101534.00;;;;5054979;28;20045;-71
2022/06/03 09:16:20;;;;;;;;;;;21.30;46.90;20.20;101532.00;;;;5053915;28;20570;-70
2022/06/03 09:19:17;;;;;;;1.50;1.25;;;21.30;46.90;20.30;101522.00;;;;5055426;28;20360;-70
2022/06/03 09:22:16;;;;;;;1.92;1.50;;;21.30;46.80;20.20;101521.00;;;;5041014;28;20047;-71
2022/06/03 09:25:05;;;;;;;1.90;1.20;;;21.30;46.80;20.30;101511.00;;;;5027753;28;20052;-70
2022/06/03 09:27:51;;;;;;;2.10;1.25;;;21.30;46.80;20.30;101509.00;;;;5056223;28;20032;-71
2022/06/03 09:30:38;;;;;;;1.10;1.00;;;21.40;46.90;20.30;101494.00;;;;5055856;28;20055;-71
2022/06/03 09:33:25;;;;;;;1.50;1.38;;;21.30;46.80;20.30;101495.00;;;;5015116;28;20132;-71
2022/06/03 09:36:13;;;;;;;3.20;1.48;;;21.30;46.80;20.30;101497.00;;;;5045638;28;20487;-71
2022/06/03 09:39:13;;;;;;;1.48;1.38;;;21.30;46.90;20.30;101490.00;;;;5039080;28;20041;-71
2022/06/03 09:41:59;;;;;;;1.83;1.55;;;21.30;46.80;20.30;101505.00;;;;5042623;28;20045;-71
2022/06/03 09:44:46;;;;;;;2.95;1.23;;;21.30;46.90;20.30;101499.00;;;;5047600;28;20036;-71
2022/06/03 09:47:32;;;;;;;1.58;1.30;;;21.30;46.90;20.30;101501.00;;;;5043202;28;20422;-72
2022/06/03 09:50:21;;;;;;;4.38;1.40;;;21.30;46.80;20.30;101505.00;;;;5052139;28;20048;-72
2022/06/03 09:53:09;;;;;;;2.17;1.17;;;21.30;46.80;20.30;101500.00;;;;5038601;28;20041;-72
2022/06/03 09:55:59;;;;;;;1.20;0.98;;;21.40;46.80;20.30;101503.00;;;;5029163;28;20049;-72
2022/06/03 09:58:45;;;;;;;2.28;1.33;;;21.30;46.70;20.30;101499.00;;;;5036104;28;20205;-72
2022/06/03 10:01:31;;;;;;;1.50;1.00;;;21.40;46.60;20.30;101504.00;;;;5030976;28;20025;-72
2022/06/03 10:04:19;;;;;;;1.10;1.00;;;21.40;46.50;20.30;101501.00;;;;5058363;28;20478;-72
2022/06/03 10:07:05;;;;;;;2.38;1.00;;;21.40;46.50;20.40;101499.00;;;;5019809;28;20387;-72
2022/06/03 10:12:58;;;;;;;1.58;1.02;;;21.30;46.30;20.30;101497.00;;;;5034209;28;20037;-72
2022/06/03 10:15:48;;;;;;;1.23;1.13;;;21.30;46.20;20.30;101499.00;;;;5046626;28;20044;-72
2022/06/03 10:18:49;;;;;;;2.10;1.10;;;21.30;46.20;20.40;101496.00;;;;5042058;28;20044;-72
2022/06/03 10:21:35;;;;;;;1.85;1.30;;;21.40;46.00;20.40;101485.00;;;;5044457;28;20278;-72
2022/06/03 10:24:23;;;;;;;1.83;1.25;;;21.40;46.00;20.40;101485.00;;;;5051461;28;20192;-74
2022/06/03 10:27:09;;;;;;;2.03;1.00;;;21.40;46.00;20.40;101493.00;;;;5057674;28;20083;-71
2022/06/03 10:29:58;;;;;;;1.55;0.90;;;21.30;45.90;20.40;101489.00;;;;5053165;28;20037;-70
2022/06/03 10:32:50;;;;;;;1.85;1.00;;;21.40;45.90;20.40;101484.00;;;;5058916;28;20119;-71
2022/06/03 10:35:38;;;;;;;1.05;0.93;;;21.40;45.90;20.40;101491.00;;;;5064629;28;20095;-71
2022/06/03 10:38:31;;;;;;;0.85;0.85;;;21.40;45.90;20.40;101481.00;;;;5028853;28;20120;-71
2022/06/03 10:41:17;;;;;;;0.80;0.80;;;21.40;45.90;20.40;101479.00;;;;5048683;28;20419;-71
2022/06/03 10:44:36;;;;;;;1.63;0.80;;;21.40;45.90;20.40;101482.00;;;;5048062;28;20045;-70
2022/06/03 10:47:44;;;;;;;1.20;1.10;;;21.40;45.90;20.40;101481.00;;;;5061403;28;20569;-70
2022/06/03 10:50:38;;;;;;;1.02;0.90;;;21.40;45.90;20.40;101472.00;;;;5054825;28;20055;-71
2022/06/03 11:02:41;;;;;;;1.00;0.90;;;21.50;45.80;20.40;101459.00;;;;5031149;28;20112;-71
2022/06/03 11:05:29;;;;;;;1.02;0.93;;;21.40;45.70;20.40;101456.00;;;;5048666;28;20056;-70
2022/06/03 11:08:15;;;;;;;;;;;21.40;45.60;20.40;101451.00;;;;5036885;28;20037;-71
2022/06/03 11:11:01;;;;;;;1.33;0.88;;;21.50;45.90;20.40;101439.00;;;;5047680;28;19916;-70
2022/06/03 11:13:48;;;;;;;1.40;1.10;;;21.50;45.50;20.40;101445.00;;;;5043638;28;20045;-71
2022/06/03 11:16:34;;;;;;;1.00;0.95;;;21.50;45.50;20.40;101448.00;;;;5041066;28;20076;-71
2022/06/03 11:19:20;;;;;;;0.80;0.80;;;21.50;45.50;20.40;101436.00;;;;5050935;28;20069;-71
2022/06/03 11:22:30;;;;;;;2.50;1.00;;;21.50;45.50;20.40;101428.00;;;;5039289;28;20572;-71
2022/06/03 11:25:27;;;;;;;0.50;0.50;;;21.50;45.40;20.40;101425.00;;;;5046078;28;20130;-71
2022/06/03 11:28:23;;;;;;;0.80;0.60;;;21.50;45.50;20.40;101411.00;;;;5042505;28;20044;-70
2022/06/03 11:31:25;;;;;;;1.40;1.00;;;21.40;45.30;20.40;101407.00;;;;5053509;28;20061;-70
2022/06/03 11:34:26;;;;;;;0.93;0.70;;;21.50;45.30;20.40;101403.00;;;;5033045;28;20474;-70
2022/06/03 11:37:34;;;;;;;0.70;0.70;;;21.50;45.30;20.40;101396.00;;;;5042073;28;20053;-70
2022/06/03 11:40:34;;;;;;;1.27;0.90;;;21.50;45.30;20.40;101390.00;;;;5053273;28;20482;-75
2022/06/03 11:43:32;;;;;;;1.20;0.85;;;21.50;45.20;20.40;101396.00;;;;5041753;28;20045;-71
2022/06/03 11:46:43;;;;;;;0.93;0.70;;;21.50;45.30;20.40;101391.00;;;;5041140;28;20479;-71
2022/06/03 11:49:30;;;;;;;0.80;0.80;;;21.50;45.30;20.40;101393.00;;;;5039656;28;20045;-71
2022/06/03 11:52:16;;;;;;;1.10;1.00;;;21.60;45.30;20.40;101393.00;;;;5051706;28;20112;-70
2022/06/03 11:55:02;;;;;;;1.83;0.80;;;21.50;45.30;20.40;101394.00;;;;5050417;28;20040;-71
2022/06/03 11:58:02;;;;;;;1.75;0.82;;;21.50;45.30;20.50;101397.00;;;;5058109;28;20056;-71
2022/06/03 12:00:57;;;;;;;1.25;0.82;;;21.50;45.30;20.50;101384.00;;;;5050138;28;20941;-71
2022/06/03 12:03:59;;;;;;;0.80;0.80;;;21.60;45.20;20.50;101387.00;;;;5042395;28;20048;-71
2022/06/03 12:07:03;;;;;;;3.60;0.70;;;21.60;45.20;20.50;101397.00;;;;5053181;28;20044;-71
2022/06/03 12:09:57;;;;;;;1.48;0.80;;;21.60;45.10;20.50;101399.00;;;;5045195;28;20076;-72
2022/06/03 12:15:52;;;;;;;2.25;0.93;;;21.60;45.10;20.50;101392.00;;;;5056082;28;20093;-70
2022/06/03 12:19:04;;;;;;;1.27;0.85;;;21.60;45.10;20.50;101392.00;;;;5044993;28;20044;-70
2022/06/03 12:21:53;;;;;;;1.77;0.90;;;21.60;45.10;20.50;101385.00;;;;5040757;28;20080;-69
2022/06/03 12:24:41;;;;;;;0.82;0.65;;;21.60;45.10;20.50;101378.00;;;;5045829;28;20048;-70
2022/06/03 12:27:39;;;;;;;0.90;0.80;;;21.60;45.00;20.50;101375.00;;;;5026535;28;20163;-69
2022/06/03 12:30:51;;;;;;;1.98;0.70;;;21.60;45.00;20.50;101381.00;;;;5028447;28;20087;-70
2022/06/03 12:33:56;;;;;;;0.93;0.70;;;21.60;44.90;20.50;101375.00;;;;5037578;28;20041;-70
2022/06/03 12:36:49;;;;;;;1.05;0.80;;;21.60;45.00;20.50;101376.00;;;;5055197;28;20040;-69
2022/06/03 12:39:50;;;;;;;2.13;0.90;;;21.60;44.90;20.50;101367.00;;;;5047817;28;20499;-70
2022/06/03 12:42:40;;;;;;;0.80;0.77;;;21.60;44.90;20.50;101369.00;;;;5043052;28;20041;-69
2022/06/03 12:45:32;;;;;;;1.75;0.80;;;21.60;44.90;20.50;101369.00;;;;5029324;28;20045;-69
2022/06/03 12:48:43;;;;;;;0.77;0.77;;;21.60;44.80;20.50;101369.00;;;;5041635;28;20041;-70
2022/06/03 12:51:32;;;;;;;1.00;0.73;;;21.60;44.70;20.50;101364.00;;;;5042305;28;20122;-70
2022/06/03 12:54:18;;;;;;;0.98;0.98;;;21.60;44.80;20.50;101361.00;;;;5049157;28;20037;-70
2022/06/03 12:57:10;;;;;;;0.85;0.82;;;21.60;44.70;20.50;101374.00;;;;5040717;28;20037;-70
2022/06/03 13:00:19;;;;;;;1.83;0.82;;;21.70;44.80;20.50;101372.00;;;;5053268;28;20052;-70
2022/06/03 13:03:12;;;;;;;1.13;0.75;;;21.60;44.80;20.50;101365.00;;;;5037755;28;20832;-69
2022/06/03 13:05:59;;;;;;;1.48;0.95;;;21.70;44.80;20.50;101364.00;;;;5051615;28;20083;-70
2022/06/03 13:11:51;;;;;;;0.65;0.65;;;21.70;44.80;20.50;101355.00;;;;5042922;28;20070;-70
2022/06/03 13:14:37;;;;;;;0.77;0.77;;;21.60;44.80;20.50;101356.00;;;;5031323;28;20046;-70
2022/06/03 13:18:18;;;;;;;1.02;0.93;;;21.70;44.80;20.60;101352.00;;;;5037994;28;20044;-70
2022/06/03 13:21:03;;;;;;;1.20;1.05;;;21.70;44.80;20.60;101352.00;;;;5042046;28;20360;-70
2022/06/03 13:23:49;;;;;;;1.02;0.93;;;21.80;44.80;20.60;101346.00;;;;5047126;28;20403;-70
2022/06/03 13:26:38;;;;;;;1.00;0.65;;;21.70;44.70;20.60;101343.00;;;;5044688;28;20141;-70
2022/06/03 13:29:49;;;;;;;1.48;1.00;;;21.70;44.70;20.60;101340.00;;;;5041292;28;20041;-73
2022/06/03 13:32:35;;;;;;;1.60;0.90;;;21.70;44.60;20.60;101337.00;;;;5025680;28;20111;-70
2022/06/03 13:35:25;;;;;;;0.85;0.85;;;21.70;44.70;20.60;101328.00;;;;5035681;28;20048;-70
2022/06/03 13:38:28;;;;;;;1.13;1.00;;;21.70;44.70;20.60;101344.00;;;;5039236;28;20043;-70
2022/06/03 13:44:53;;;;;;;2.80;1.02;;;21.70;44.70;20.60;101342.00;;;;5048775;28;20044;-70
2022/06/03 13:47:45;;;;;;;1.25;0.90;;;21.80;44.80;20.60;101347.00;;;;5050515;28;20079;-69
2022/06/03 13:50:34;;;;;;;0.90;0.90;;;21.80;44.80;20.60;101340.00;;;;5046377;28;20048;-69
2022/06/03 13:53:30;;;;;;;1.27;1.17;;;21.80;44.80;20.60;101337.00;;;;5022789;28;20033;-70
2022/06/03 13:56:24;;;;;;;2.05;1.20;;;21.80;45.60;20.60;101333.00;;;;5049338;28;20421;-70
2022/06/03 13:59:15;;;;;;;1.30;1.10;;;21.80;44.90;20.60;101333.00;;;;5050189;28;20375;-70
2022/06/03 14:02:01;;;;;;;2.00;1.55;;;21.80;45.00;20.70;101337.00;;;;5053311;28;20037;-70
2022/06/03 14:05:05;;;;;;;1.38;1.27;;;21.80;45.00;20.60;101328.00;;;;5052094;28;20110;-69
2022/06/03 14:07:58;;;;;;;2.28;1.13;;;21.80;45.00;20.70;101329.00;;;;5040478;28;20041;-70
2022/06/03 14:11:05;;;;;;;1.63;1.20;;;21.80;45.00;20.70;101331.00;;;;5044488;28;20045;-70